Time,TemperatureF,DewpointF,PressureIn,WindDirection,WindDirectionDegrees,WindSpeedMPH,WindSpeedGustMPH,Humidity,HourlyPrecipIn,Conditions,Clouds,dailyrainin,SoftwareType,DateUTC
2013-03-19 00:03:00,25.7,15.9,29.91,WNW,297,17.0,22.0,66,0.00,,---,0.00,VWS V14.00,2013-03-19 05:03:00,
2013-03-19 00:08:00,25.8,16.0,29.91,West,276,17.0,21.0,66,0.00,,---,0.00,VWS V14.00,2013-03-19 05:08:00,
2013-03-19 00:13:00,25.8,15.7,29.91,WNW,286,14.0,21.0,65,0.00,,---,0.00,VWS V14.00,2013-03-19 05:13:00,
2013-03-19 00:18:00,25.8,15.3,29.91,WNW,286,17.0,25.0,64,0.00,,---,0.00,VWS V14.00,2013-03-19 05:18:00,
2013-03-19 00:23:00,25.8,15.3,29.91,WNW,303,25.0,25.0,64,0.00,,---,0.00,VWS V14.00,2013-03-19 05:23:00,
2013-03-19 00:28:00,25.8,15.7,29.91,West,278,20.0,26.0,65,0.00,,---,0.00,VWS V14.00,2013-03-19 05:28:00,
2013-03-19 00:33:00,25.7,15.6,29.91,West,276,14.0,16.0,65,0.00,,---,0.00,VWS V14.00,2013-03-19 05:33:00,
2013-03-19 00:38:00,25.6,15.5,29.91,West,278,19.0,26.0,65,0.00,,---,0.00,VWS V14.00,2013-03-19 05:38:00,
2013-03-19 00:43:00,25.6,15.1,29.91,West,275,15.0,21.0,64,0.00,,---,0.00,VWS V14.00,2013-03-19 05:43:00,
2013-03-19 00:48:00,25.4,15.3,29.91,West,265,17.0,21.0,65,0.00,,---,0.00,VWS V14.00,2013-03-19 05:48:00,
2013-03-19 00:53:00,25.4,14.9,29.91,WNW,287,17.0,25.0,64,0.00,,---,0.00,VWS V14.00,2013-03-19 05:53:00,
2013-03-19 00:58:00,25.4,16.0,29.91,WNW,285,24.0,31.0,67,0.00,,---,0.00,VWS V14.00,2013-03-19 05:58:00,
2013-03-19 01:04:00,25.4,14.6,29.91,West,280,17.0,25.0,63,0.00,,---,0.00,VWS V14.00,2013-03-19 06:04:00,
2013-03-19 01:09:00,25.4,14.9,29.91,West,281,9.0,9.0,64,0.00,,---,0.00,VWS V14.00,2013-03-19 06:09:00,
2013-03-19 01:13:00,25.3,15.6,29.91,West,274,14.0,17.0,66,0.00,,---,0.00,VWS V14.00,2013-03-19 06:13:00,
2013-03-19 01:19:00,25.1,15.7,29.90,West,281,15.0,17.0,67,0.00,,---,0.00,VWS V14.00,2013-03-19 06:19:00,
2013-03-19 01:24:00,25.1,15.7,29.90,WNW,284,8.0,16.0,67,0.00,,---,0.00,VWS V14.00,2013-03-19 06:24:00,
2013-03-19 01:29:00,25.1,16.4,29.90,West,273,9.0,21.0,69,0.00,,---,0.00,VWS V14.00,2013-03-19 06:29:00,
2013-03-19 01:34:00,25.0,16.3,29.89,West,263,11.0,19.0,69,0.00,,---,0.00,VWS V14.00,2013-03-19 06:34:00,
2013-03-19 01:39:00,25.0,16.3,29.89,West,277,15.0,17.0,69,0.00,,---,0.00,VWS V14.00,2013-03-19 06:39:00,
2013-03-19 01:44:00,24.8,16.1,29.89,West,271,17.0,17.0,69,0.00,,---,0.00,VWS V14.00,2013-03-19 06:44:00,
2013-03-19 01:49:00,24.8,16.1,29.89,WNW,284,9.0,14.0,69,0.00,,---,0.00,VWS V14.00,2013-03-19 06:49:00,
2013-03-19 01:54:00,24.7,16.3,29.89,WNW,288,9.0,15.0,70,0.00,,---,0.00,VWS V14.00,2013-03-19 06:54:00,
2013-03-19 01:59:00,24.7,16.6,29.89,West,273,11.0,15.0,71,0.00,,---,0.00,VWS V14.00,2013-03-19 06:59:00,
2013-03-19 02:04:00,24.7,16.6,29.89,West,278,8.0,16.0,71,0.00,,---,0.00,VWS V14.00,2013-03-19 07:04:00,
2013-03-19 02:09:00,24.5,16.5,29.89,West,274,12.0,17.0,71,0.00,,---,0.00,VWS V14.00,2013-03-19 07:09:00,
2013-03-19 02:14:00,24.5,16.5,29.89,West,272,12.0,15.0,71,0.00,,---,0.00,VWS V14.00,2013-03-19 07:14:00,
2013-03-19 02:19:00,24.4,16.7,29.89,West,273,9.0,11.0,72,0.00,,---,0.00,VWS V14.00,2013-03-19 07:19:00,
2013-03-19 02:25:00,24.4,16.4,29.89,West,261,11.0,13.0,71,0.00,,---,0.00,VWS V14.00,2013-03-19 07:25:00,
2013-03-19 02:30:00,24.2,17.1,29.89,West,273,12.0,15.0,74,0.00,,---,0.00,VWS V14.00,2013-03-19 07:30:00,
2013-03-19 02:35:00,24.2,17.1,29.89,West,275,15.0,15.0,74,0.00,,---,0.00,VWS V14.00,2013-03-19 07:35:00,
2013-03-19 02:40:00,24.2,16.8,29.89,West,280,19.0,19.0,73,0.00,,---,0.00,VWS V14.00,2013-03-19 07:40:00,
2013-03-19 02:45:00,24.4,16.4,29.89,West,275,12.0,17.0,71,0.00,,---,0.00,VWS V14.00,2013-03-19 07:45:00,
2013-03-19 02:50:00,24.4,16.4,29.91,West,273,14.0,15.0,71,0.00,,---,0.00,VWS V14.00,2013-03-19 07:50:00,
2013-03-19 02:55:00,24.4,16.4,29.91,WNW,284,13.0,21.0,71,0.00,,---,0.00,VWS V14.00,2013-03-19 07:55:00,
2013-03-19 03:00:00,24.2,16.2,29.92,West,277,14.0,14.0,71,0.00,,---,0.00,VWS V14.00,2013-03-19 08:00:00,
2013-03-19 03:05:00,24.2,16.5,29.92,West,270,11.0,17.0,72,0.00,,---,0.00,VWS V14.00,2013-03-19 08:05:00,
2013-03-19 03:10:00,24.1,16.4,29.92,West,269,14.0,15.0,72,0.00,,---,0.00,VWS V14.00,2013-03-19 08:10:00,
2013-03-19 03:15:00,24.1,16.1,29.92,West,270,20.0,21.0,71,0.00,,---,0.00,VWS V14.00,2013-03-19 08:15:00,
2013-03-19 03:20:00,24.1,16.1,29.92,West,275,16.0,16.0,71,0.00,,---,0.00,VWS V14.00,2013-03-19 08:20:00,
2013-03-19 03:25:00,23.9,15.9,29.92,West,281,11.0,16.0,71,0.00,,---,0.00,VWS V14.00,2013-03-19 08:25:00,
2013-03-19 03:30:00,23.9,15.9,29.91,West,278,6.0,13.0,71,0.00,,---,0.00,VWS V14.00,2013-03-19 08:30:00,
2013-03-19 03:35:00,23.8,16.1,29.91,West,276,8.0,17.0,72,0.00,,---,0.00,VWS V14.00,2013-03-19 08:35:00,
2013-03-19 03:40:00,23.6,16.2,29.91,West,279,11.0,14.0,73,0.00,,---,0.00,VWS V14.00,2013-03-19 08:40:00,
2013-03-19 03:46:00,23.6,16.2,29.92,West,277,6.0,16.0,73,0.00,,---,0.00,VWS V14.00,2013-03-19 08:46:00,
2013-03-19 03:51:00,23.5,16.1,29.92,WNW,288,11.0,11.0,73,0.00,,---,0.00,VWS V14.00,2013-03-19 08:51:00,
2013-03-19 03:56:00,23.5,16.1,29.92,WNW,288,11.0,11.0,73,0.00,,---,0.00,VWS V14.00,2013-03-19 08:56:00,
2013-03-19 04:01:00,23.5,15.5,29.91,West,278,10.0,18.0,71,0.00,,---,0.00,VWS V14.00,2013-03-19 09:01:00,
2013-03-19 04:06:00,23.3,15.3,29.91,WNW,283,9.0,18.0,71,0.00,,---,0.00,VWS V14.00,2013-03-19 09:06:00,
2013-03-19 04:11:00,23.3,15.3,29.91,WNW,283,10.0,14.0,71,0.00,,---,0.00,VWS V14.00,2013-03-19 09:11:00,
2013-03-19 04:16:00,23.2,15.2,29.92,WNW,289,12.0,14.0,71,0.00,,---,0.00,VWS V14.00,2013-03-19 09:16:00,
2013-03-19 04:21:00,23.0,15.3,29.92,WNW,284,9.0,13.0,72,0.00,,---,0.00,VWS V14.00,2013-03-19 09:21:00,
2013-03-19 04:26:00,22.7,15.1,29.92,WNW,292,15.0,18.0,72,0.00,,---,0.00,VWS V14.00,2013-03-19 09:26:00,
2013-03-19 04:32:00,22.7,14.7,29.92,WNW,291,11.0,15.0,71,0.00,,---,0.00,VWS V14.00,2013-03-19 09:32:00,
2013-03-19 04:37:00,22.5,14.5,29.92,West,273,14.0,17.0,71,0.00,,---,0.00,VWS V14.00,2013-03-19 09:37:00,
2013-03-19 04:42:00,22.5,14.2,29.92,WNW,288,7.0,15.0,70,0.00,,---,0.00,VWS V14.00,2013-03-19 09:42:00,
2013-03-19 04:47:00,22.4,14.4,29.94,WNW,290,13.0,13.0,71,0.00,,---,0.00,VWS V14.00,2013-03-19 09:47:00,
2013-03-19 04:52:00,22.2,13.9,29.94,WNW,282,14.0,18.0,70,0.00,,---,0.00,VWS V14.00,2013-03-19 09:52:00,
2013-03-19 04:57:00,22.2,13.6,29.94,WNW,283,8.0,15.0,69,0.00,,---,0.00,VWS V14.00,2013-03-19 09:57:00,
2013-03-19 05:02:00,22.1,13.8,29.95,West,279,10.0,18.0,70,0.00,,---,0.00,VWS V14.00,2013-03-19 10:02:00,
2013-03-19 05:07:00,22.1,13.5,29.95,West,273,17.0,20.0,69,0.00,,---,0.00,VWS V14.00,2013-03-19 10:07:00,
2013-03-19 05:13:00,22.1,12.8,29.95,West,271,13.0,25.0,67,0.00,,---,0.00,VWS V14.00,2013-03-19 10:13:00,
2013-03-19 05:18:00,22.1,12.8,29.95,West,277,7.0,19.0,67,0.00,,---,0.00,VWS V14.00,2013-03-19 10:18:00,
2013-03-19 05:23:00,21.9,13.3,29.95,West,273,12.0,17.0,69,0.00,,---,0.00,VWS V14.00,2013-03-19 10:23:00,
2013-03-19 05:28:00,21.9,13.3,29.95,West,272,10.0,18.0,69,0.00,,---,0.00,VWS V14.00,2013-03-19 10:28:00,
2013-03-19 05:33:00,21.8,13.5,29.95,West,272,14.0,14.0,70,0.00,,---,0.00,VWS V14.00,2013-03-19 10:33:00,
2013-03-19 05:38:00,21.4,12.5,29.95,West,273,12.0,20.0,68,0.00,,---,0.00,VWS V14.00,2013-03-19 10:38:00,
2013-03-19 05:43:00,21.3,11.0,29.95,West,271,18.0,19.0,64,0.00,,---,0.00,VWS V14.00,2013-03-19 10:43:00,
2013-03-19 05:48:00,21.1,10.8,29.96,West,275,11.0,14.0,64,0.00,,---,0.00,VWS V14.00,2013-03-19 10:48:00,
2013-03-19 05:53:00,21.0,10.8,29.96,West,275,14.0,17.0,64,0.00,,---,0.00,VWS V14.00,2013-03-19 10:53:00,
2013-03-19 05:58:00,20.8,10.6,29.96,WNW,290,9.0,17.0,64,0.00,,---,0.00,VWS V14.00,2013-03-19 10:58:00,
2013-03-19 06:03:00,20.6,11.1,29.96,West,281,10.0,10.0,66,0.00,,---,0.00,VWS V14.00,2013-03-19 11:03:00,
2013-03-19 06:09:00,20.6,11.4,29.96,West,271,11.0,11.0,67,0.00,,---,0.00,VWS V14.00,2013-03-19 11:09:00,
2013-03-19 06:14:00,20.6,11.7,29.96,West,269,12.0,19.0,68,0.00,,---,0.00,VWS V14.00,2013-03-19 11:14:00,
2013-03-19 06:19:00,20.6,11.4,29.98,West,275,12.0,18.0,67,0.00,,---,0.00,VWS V14.00,2013-03-19 11:19:00,
2013-03-19 06:24:00,20.6,11.1,29.98,West,273,9.0,22.0,66,0.00,,---,0.00,VWS V14.00,2013-03-19 11:24:00,
2013-03-19 06:29:00,20.5,10.6,29.98,West,274,13.0,17.0,65,0.00,,---,0.00,VWS V14.00,2013-03-19 11:29:00,
2013-03-19 06:34:00,20.5,10.6,29.98,West,270,14.0,18.0,65,0.00,,---,0.00,VWS V14.00,2013-03-19 11:34:00,
2013-03-19 06:39:00,20.5,11.3,29.98,West,270,16.0,22.0,67,0.00,,---,0.00,VWS V14.00,2013-03-19 11:39:00,
2013-03-19 06:44:00,20.3,11.1,29.98,WNW,282,6.0,14.0,67,0.00,,---,0.00,VWS V14.00,2013-03-19 11:44:00,
2013-03-19 06:49:00,20.2,10.7,29.99,West,273,11.0,20.0,66,0.00,,---,0.00,VWS V14.00,2013-03-19 11:49:00,
2013-03-19 06:54:00,20.2,10.3,29.99,West,279,17.0,19.0,65,0.00,,---,0.00,VWS V14.00,2013-03-19 11:54:00,
2013-03-19 06:59:00,20.0,9.8,29.99,West,274,10.0,14.0,64,0.00,,---,0.00,VWS V14.00,2013-03-19 11:59:00,
2013-03-19 07:04:00,20.0,10.1,29.99,WNW,285,10.0,16.0,65,0.00,,---,0.00,VWS V14.00,2013-03-19 12:04:00,
2013-03-19 07:09:00,20.0,9.8,29.99,West,277,17.0,17.0,64,0.00,,---,0.00,VWS V14.00,2013-03-19 12:09:00,
2013-03-19 07:14:00,20.0,10.1,29.99,WNW,286,5.0,13.0,65,0.00,,---,0.00,VWS V14.00,2013-03-19 12:14:00,
2013-03-19 07:19:00,20.0,9.8,29.99,West,281,8.0,13.0,64,0.00,,---,0.00,VWS V14.00,2013-03-19 12:19:00,
2013-03-19 07:24:00,20.0,10.1,29.99,West,274,12.0,15.0,65,0.00,,---,0.00,VWS V14.00,2013-03-19 12:24:00,
2013-03-19 07:29:00,20.0,10.1,29.99,West,269,14.0,16.0,65,0.00,,---,0.00,VWS V14.00,2013-03-19 12:29:00,
2013-03-19 07:34:00,20.0,10.1,30.00,West,269,14.0,14.0,65,0.00,,---,0.00,VWS V14.00,2013-03-19 12:34:00,
2013-03-19 07:39:00,20.0,10.1,30.00,West,269,14.0,14.0,65,0.00,,---,0.00,VWS V14.00,2013-03-19 12:39:00,
2013-03-19 07:44:00,20.0,10.1,30.00,West,269,14.0,14.0,65,0.00,,---,0.00,VWS V14.00,2013-03-19 12:44:00,
2013-03-19 07:49:00,20.0,10.1,29.98,West,269,14.0,14.0,65,0.00,,---,0.00,VWS V14.00,2013-03-19 12:49:00,
2013-03-19 07:54:00,20.0,10.1,29.98,West,269,14.0,14.0,65,0.00,,---,0.00,VWS V14.00,2013-03-19 12:54:00,
2013-03-19 07:59:00,20.8,10.9,29.98,WNW,282,13.0,19.0,65,0.00,,---,0.00,VWS V14.00,2013-03-19 12:59:00,
2013-03-19 08:05:00,21.0,11.1,30.01,West,278,13.0,13.0,65,0.00,,---,0.00,VWS V14.00,2013-03-19 13:05:00,
2013-03-19 08:10:00,21.3,11.4,30.01,West,273,15.0,16.0,65,0.00,,---,0.00,VWS V14.00,2013-03-19 13:10:00,
2013-03-19 08:15:00,21.6,12.0,30.01,WNW,285,10.0,16.0,66,0.00,,---,0.00,VWS V14.00,2013-03-19 13:15:00,
2013-03-19 08:20:00,21.8,12.2,30.01,WNW,293,12.0,18.0,66,0.00,,---,0.00,VWS V14.00,2013-03-19 13:20:00,
2013-03-19 08:25:00,21.8,11.5,30.01,West,279,15.0,23.0,64,0.00,,---,0.00,VWS V14.00,2013-03-19 13:25:00,
2013-03-19 08:30:00,21.9,11.6,30.01,WNW,288,22.0,22.0,64,0.00,,---,0.00,VWS V14.00,2013-03-19 13:30:00,
2013-03-19 08:35:00,21.9,10.9,30.01,West,275,11.0,24.0,62,0.00,,---,0.00,VWS V14.00,2013-03-19 13:35:00,
2013-03-19 08:40:00,21.9,10.5,30.01,WNW,288,10.0,19.0,61,0.00,,---,0.00,VWS V14.00,2013-03-19 13:40:00,
2013-03-19 08:45:00,22.1,10.4,30.02,WNW,290,28.0,28.0,60,0.00,,---,0.00,VWS V14.00,2013-03-19 13:45:00,
2013-03-19 08:50:00,22.4,11.0,30.02,West,277,14.0,20.0,61,0.00,,---,0.00,VWS V14.00,2013-03-19 13:50:00,
2013-03-19 08:55:00,22.7,11.3,30.02,West,275,19.0,19.0,61,0.00,,---,0.00,VWS V14.00,2013-03-19 13:55:00,
2013-03-19 09:00:00,22.7,10.2,30.03,WNW,289,16.0,20.0,58,0.00,,---,0.00,VWS V14.00,2013-03-19 14:00:00,
2013-03-19 09:05:00,23.0,11.6,30.03,West,259,15.0,20.0,61,0.00,,---,0.00,VWS V14.00,2013-03-19 14:05:00,
2013-03-19 09:10:00,23.2,10.6,30.03,West,279,10.0,25.0,58,0.00,,---,0.00,VWS V14.00,2013-03-19 14:10:00,
2013-03-19 09:15:00,23.3,11.1,30.03,WNW,286,13.0,22.0,59,0.00,,---,0.00,VWS V14.00,2013-03-19 14:15:00,
2013-03-19 09:20:00,23.3,11.1,30.03,WNW,287,15.0,16.0,59,0.00,,---,0.00,VWS V14.00,2013-03-19 14:20:00,
2013-03-19 09:26:00,23.8,12.0,30.03,West,275,14.0,20.0,60,0.00,,---,0.00,VWS V14.00,2013-03-19 14:26:00,
2013-03-19 09:31:00,24.2,12.3,30.03,West,279,10.0,17.0,60,0.00,,---,0.00,VWS V14.00,2013-03-19 14:31:00,
2013-03-19 09:36:00,24.5,13.7,30.03,West,280,10.0,15.0,63,0.00,,---,0.00,VWS V14.00,2013-03-19 14:36:00,
2013-03-19 09:41:00,24.7,11.6,30.03,WNW,284,12.0,19.0,57,0.00,,---,0.00,VWS V14.00,2013-03-19 14:41:00,
2013-03-19 09:46:00,24.7,12.8,30.04,West,278,17.0,21.0,60,0.00,,---,0.00,VWS V14.00,2013-03-19 14:46:00,
2013-03-19 09:51:00,25.0,13.1,30.04,West,271,15.0,22.0,60,0.00,,---,0.00,VWS V14.00,2013-03-19 14:51:00,
2013-03-19 09:56:00,25.3,13.0,30.04,WNW,295,17.0,21.0,59,0.00,,---,0.00,VWS V14.00,2013-03-19 14:56:00,
2013-03-19 10:01:00,25.4,12.3,30.04,West,274,17.0,21.0,57,0.00,,---,0.00,VWS V14.00,2013-03-19 15:01:00,
2013-03-19 10:06:00,25.7,13.4,30.04,West,279,18.0,25.0,59,0.00,,---,0.00,VWS V14.00,2013-03-19 15:06:00,
2013-03-19 10:11:00,25.7,13.4,30.04,WSW,254,13.0,17.0,59,0.00,,---,0.00,VWS V14.00,2013-03-19 15:11:00,
2013-03-19 10:16:00,26.1,13.4,30.05,West,262,12.0,21.0,58,0.00,,---,0.00,VWS V14.00,2013-03-19 15:16:00,
2013-03-19 10:21:00,26.3,13.9,30.05,West,273,17.0,17.0,59,0.00,,---,0.00,VWS V14.00,2013-03-19 15:21:00,
2013-03-19 10:26:00,26.6,13.4,30.05,West,279,12.0,12.0,57,0.00,,---,0.00,VWS V14.00,2013-03-19 15:26:00,
2013-03-19 10:31:00,26.6,13.4,30.06,West,271,12.0,19.0,57,0.00,,---,0.00,VWS V14.00,2013-03-19 15:31:00,
2013-03-19 10:37:00,26.7,13.5,30.06,West,271,22.0,22.0,57,0.00,,---,0.00,VWS V14.00,2013-03-19 15:37:00,
2013-03-19 10:42:00,27.2,14.8,30.06,West,259,9.0,13.0,59,0.00,,---,0.00,VWS V14.00,2013-03-19 15:42:00,
2013-03-19 10:47:00,27.5,14.3,30.06,West,270,17.0,19.0,57,0.00,,---,0.00,VWS V14.00,2013-03-19 15:47:00,
2013-03-19 10:52:00,27.5,14.3,30.06,West,270,17.0,17.0,57,0.00,,---,0.00,VWS V14.00,2013-03-19 15:52:00,
2013-03-19 10:57:00,28.1,14.4,30.06,West,271,17.0,24.0,56,0.00,,---,0.00,VWS V14.00,2013-03-19 15:57:00,
2013-03-19 11:02:00,27.9,13.0,30.07,West,271,12.0,14.0,53,0.00,,---,0.00,VWS V14.00,2013-03-19 16:02:00,
2013-03-19 11:07:00,28.2,13.3,30.07,WNW,295,21.0,21.0,53,0.00,,---,0.00,VWS V14.00,2013-03-19 16:07:00,
2013-03-19 11:12:00,28.4,12.6,30.07,West,272,13.0,17.0,51,0.00,,---,0.00,VWS V14.00,2013-03-19 16:12:00,
2013-03-19 11:17:00,28.8,13.8,30.08,WNW,290,15.0,19.0,53,0.00,,---,0.00,VWS V14.00,2013-03-19 16:17:00,
2013-03-19 11:22:00,28.8,14.7,30.08,WNW,284,15.0,20.0,55,0.00,,---,0.00,VWS V14.00,2013-03-19 16:22:00,
2013-03-19 11:27:00,29.4,15.7,30.08,West,273,17.0,22.0,56,0.00,,---,0.00,VWS V14.00,2013-03-19 16:27:00,
2013-03-19 11:32:00,29.7,14.7,30.09,WNW,286,7.0,20.0,53,0.00,,---,0.00,VWS V14.00,2013-03-19 16:32:00,
2013-03-19 11:37:00,30.1,15.9,30.09,West,261,12.0,12.0,55,0.00,,---,0.00,VWS V14.00,2013-03-19 16:37:00,
2013-03-19 11:42:00,30.1,15.9,30.09,West,261,12.0,12.0,55,0.00,,---,0.00,VWS V14.00,2013-03-19 16:42:00,
2013-03-19 11:48:00,30.1,15.9,30.09,West,261,12.0,12.0,55,0.00,,---,0.00,VWS V14.00,2013-03-19 16:48:00,
2013-03-19 11:53:00,30.1,15.9,30.09,West,261,12.0,12.0,55,0.00,,---,0.00,VWS V14.00,2013-03-19 16:53:00,
2013-03-19 11:58:00,30.1,15.9,30.09,West,261,12.0,12.0,55,0.00,,---,0.00,VWS V14.00,2013-03-19 16:58:00,
2013-03-19 12:03:00,30.1,15.9,30.09,West,261,12.0,12.0,55,0.00,,---,0.00,VWS V14.00,2013-03-19 17:03:00,
2013-03-19 12:08:00,30.1,15.9,30.09,West,261,12.0,12.0,55,0.00,,---,0.00,VWS V14.00,2013-03-19 17:08:00,
2013-03-19 12:13:00,30.1,15.9,30.09,West,261,12.0,12.0,55,0.00,,---,0.00,VWS V14.00,2013-03-19 17:13:00,
2013-03-19 12:19:00,31.8,14.8,30.10,WNW,294,18.0,20.0,49,0.00,,---,0.00,VWS V14.00,2013-03-19 17:19:00,
2013-03-19 12:24:00,32.2,15.7,30.10,West,273,13.0,17.0,50,0.00,,---,0.00,VWS V14.00,2013-03-19 17:24:00,
2013-03-19 12:29:00,32.5,15.5,30.10,West,271,14.0,15.0,49,0.00,,---,0.00,VWS V14.00,2013-03-19 17:29:00,
2013-03-19 12:34:00,32.9,15.9,30.10,West,273,10.0,16.0,49,0.00,,---,0.00,VWS V14.00,2013-03-19 17:34:00,
2013-03-19 12:39:00,33.4,15.8,30.10,West,271,9.0,19.0,48,0.00,,---,0.00,VWS V14.00,2013-03-19 17:39:00,
2013-03-19 12:44:00,33.1,14.6,30.10,West,280,13.0,16.0,46,0.00,,---,0.00,VWS V14.00,2013-03-19 17:44:00,
2013-03-19 12:49:00,33.4,16.3,30.10,West,273,7.0,24.0,49,0.00,,---,0.00,VWS V14.00,2013-03-19 17:49:00,
2013-03-19 12:54:00,33.7,16.6,30.10,SW,235,14.0,15.0,49,0.00,,---,0.00,VWS V14.00,2013-03-19 17:54:00,
2013-03-19 12:59:00,33.8,17.6,30.10,West,266,12.0,18.0,51,0.00,,---,0.00,VWS V14.00,2013-03-19 17:59:00,
2013-03-19 13:04:00,34.1,16.5,30.10,WNW,288,14.0,19.0,48,0.00,,---,0.00,VWS V14.00,2013-03-19 18:04:00,
2013-03-19 13:09:00,34.3,16.7,30.10,WNW,291,13.0,23.0,48,0.00,,---,0.00,VWS V14.00,2013-03-19 18:09:00,
2013-03-19 13:14:00,34.9,19.1,30.10,WSW,244,16.0,17.0,52,0.00,,---,0.00,VWS V14.00,2013-03-19 18:14:00,
2013-03-19 13:19:00,34.9,15.2,30.10,West,281,13.0,17.0,44,0.00,,---,0.00,VWS V14.00,2013-03-19 18:19:00,
2013-03-19 13:24:00,34.9,15.7,30.10,WNW,292,24.0,24.0,45,0.00,,---,0.00,VWS V14.00,2013-03-19 18:24:00,
2013-03-19 13:29:00,34.9,14.1,30.10,West,268,14.0,23.0,42,0.00,,---,0.00,VWS V14.00,2013-03-19 18:29:00,
2013-03-19 13:34:00,35.3,19.0,30.10,West,269,21.0,22.0,51,0.00,,---,0.00,VWS V14.00,2013-03-19 18:34:00,
2013-03-19 13:40:00,35.6,18.8,30.10,WNW,285,14.0,17.0,50,0.00,,---,0.00,VWS V14.00,2013-03-19 18:40:00,
2013-03-19 13:45:00,35.9,18.1,30.10,West,268,20.0,20.0,48,0.00,,---,0.00,VWS V14.00,2013-03-19 18:45:00,
2013-03-19 13:50:00,36.0,18.2,30.10,WNW,289,16.0,20.0,48,0.00,,---,0.00,VWS V14.00,2013-03-19 18:50:00,
2013-03-19 13:55:00,36.0,19.2,30.10,WSW,257,17.0,20.0,50,0.00,,---,0.00,VWS V14.00,2013-03-19 18:55:00,
2013-03-19 14:00:00,36.5,19.2,30.10,WNW,286,14.0,20.0,49,0.00,,---,0.00,VWS V14.00,2013-03-19 19:00:00,
2013-03-19 14:05:00,36.0,14.0,30.10,West,277,10.0,19.0,40,0.00,,---,0.00,VWS V14.00,2013-03-19 19:05:00,
2013-03-19 14:10:00,36.3,17.0,30.10,West,279,12.0,18.0,45,0.00,,---,0.00,VWS V14.00,2013-03-19 19:10:00,
2013-03-19 14:15:00,36.6,17.3,30.10,West,271,17.0,22.0,45,0.00,,---,0.00,VWS V14.00,2013-03-19 19:15:00,
2013-03-19 14:20:00,37.2,21.2,30.10,West,272,14.0,15.0,52,0.00,,---,0.00,VWS V14.00,2013-03-19 19:20:00,
2013-03-19 14:25:00,37.0,19.6,30.10,West,272,12.0,21.0,49,0.00,,---,0.00,VWS V14.00,2013-03-19 19:25:00,
2013-03-19 14:30:00,37.3,16.9,30.10,West,276,11.0,18.0,43,0.00,,---,0.00,VWS V14.00,2013-03-19 19:30:00,
2013-03-19 14:35:00,37.2,18.3,30.10,WSW,252,12.0,17.0,46,0.00,,---,0.00,VWS V14.00,2013-03-19 19:35:00,
2013-03-19 14:40:00,37.2,18.3,30.10,West,259,9.0,19.0,46,0.00,,---,0.00,VWS V14.00,2013-03-19 19:40:00,
2013-03-19 14:45:00,37.3,14.6,30.10,West,271,11.0,20.0,39,0.00,,---,0.00,VWS V14.00,2013-03-19 19:45:00,
2013-03-19 14:50:00,37.3,14.6,30.10,WNW,293,10.0,18.0,39,0.00,,---,0.00,VWS V14.00,2013-03-19 19:50:00,
2013-03-19 14:55:00,38.0,20.1,30.10,WNW,288,12.0,17.0,48,0.00,,---,0.00,VWS V14.00,2013-03-19 19:55:00,
2013-03-19 15:01:00,38.3,16.7,30.10,West,275,13.0,16.0,41,0.00,,---,0.00,VWS V14.00,2013-03-19 20:01:00,
2013-03-19 15:06:00,38.3,19.9,30.10,WSW,258,6.0,19.0,47,0.00,,---,0.00,VWS V14.00,2013-03-19 20:06:00,
2013-03-19 15:11:00,38.3,19.9,30.10,WSW,252,11.0,19.0,47,0.00,,---,0.00,VWS V14.00,2013-03-19 20:11:00,
2013-03-19 15:16:00,38.3,17.2,30.10,West,267,14.0,19.0,42,0.00,,---,0.00,VWS V14.00,2013-03-19 20:16:00,
2013-03-19 15:21:00,38.0,19.1,30.10,West,273,11.0,18.0,46,0.00,,---,0.00,VWS V14.00,2013-03-19 20:21:00,
2013-03-19 15:26:00,38.0,15.8,30.10,West,269,8.0,13.0,40,0.00,,---,0.00,VWS V14.00,2013-03-19 20:26:00,
2013-03-19 15:31:00,37.9,14.6,30.10,WNW,301,11.0,15.0,38,0.00,,---,0.00,VWS V14.00,2013-03-19 20:31:00,
2013-03-19 15:36:00,38.2,13.0,30.10,West,274,12.0,18.0,35,0.00,,---,0.00,VWS V14.00,2013-03-19 20:36:00,
2013-03-19 15:41:00,38.6,15.8,30.10,West,271,12.0,15.0,39,0.00,,---,0.00,VWS V14.00,2013-03-19 20:41:00,
2013-03-19 15:46:00,38.8,19.8,30.10,WSW,252,19.0,19.0,46,0.00,,---,0.00,VWS V14.00,2013-03-19 20:46:00,
2013-03-19 15:51:00,38.9,18.9,30.10,West,262,11.0,11.0,44,0.00,,---,0.00,VWS V14.00,2013-03-19 20:51:00,
2013-03-19 15:56:00,38.9,18.9,30.10,West,262,11.0,11.0,44,0.00,,---,0.00,VWS V14.00,2013-03-19 20:56:00,
2013-03-19 16:01:00,38.9,18.9,30.11,West,262,11.0,11.0,44,0.00,,---,0.00,VWS V14.00,2013-03-19 21:01:00,
2013-03-19 16:06:00,38.9,18.9,30.11,West,262,11.0,11.0,44,0.00,,---,0.00,VWS V14.00,2013-03-19 21:06:00,
2013-03-19 16:11:00,38.9,18.9,30.11,West,262,11.0,11.0,44,0.00,,---,0.00,VWS V14.00,2013-03-19 21:11:00,
2013-03-19 16:16:00,38.9,18.9,30.11,West,262,11.0,11.0,44,0.00,,---,0.00,VWS V14.00,2013-03-19 21:16:00,
2013-03-19 16:22:00,38.9,18.9,30.11,West,262,11.0,11.0,44,0.00,,---,0.00,VWS V14.00,2013-03-19 21:22:00,
2013-03-19 16:27:00,38.9,18.9,30.11,West,262,11.0,11.0,44,0.00,,---,0.00,VWS V14.00,2013-03-19 21:27:00,
2013-03-19 16:32:00,38.9,18.9,30.12,West,262,11.0,11.0,44,0.00,,---,0.00,VWS V14.00,2013-03-19 21:32:00,
2013-03-19 16:37:00,38.9,18.9,30.12,West,262,11.0,11.0,44,0.00,,---,0.00,VWS V14.00,2013-03-19 21:37:00,
2013-03-19 16:42:00,38.9,18.9,30.12,West,262,11.0,11.0,44,0.00,,---,0.00,VWS V14.00,2013-03-19 21:42:00,
2013-03-19 16:47:00,38.9,18.9,30.12,West,262,11.0,11.0,44,0.00,,---,0.00,VWS V14.00,2013-03-19 21:47:00,
2013-03-19 16:52:00,38.9,18.9,30.12,West,262,11.0,11.0,44,0.00,,---,0.00,VWS V14.00,2013-03-19 21:52:00,
2013-03-19 16:57:00,38.9,18.9,30.12,West,262,11.0,11.0,44,0.00,,---,0.00,VWS V14.00,2013-03-19 21:57:00,
2013-03-19 17:03:00,38.9,18.9,30.13,West,262,11.0,11.0,44,0.00,,---,0.00,VWS V14.00,2013-03-19 22:03:00,
2013-03-19 17:08:00,39.5,17.2,30.13,WSW,257,16.0,21.0,40,0.00,,---,0.00,VWS V14.00,2013-03-19 22:08:00,
2013-03-19 17:13:00,39.2,16.9,30.13,West,264,6.0,15.0,40,0.00,,---,0.00,VWS V14.00,2013-03-19 22:13:00,
2013-03-19 17:18:00,39.1,15.6,30.11,West,273,12.0,15.0,38,0.00,,---,0.00,VWS V14.00,2013-03-19 22:18:00,
2013-03-19 17:23:00,39.2,14.5,30.11,WNW,286,14.0,21.0,36,0.00,,---,0.00,VWS V14.00,2013-03-19 22:23:00,
2013-03-19 17:28:00,39.1,13.1,30.11,WNW,284,13.0,14.0,34,0.00,,---,0.00,VWS V14.00,2013-03-19 22:28:00,
2013-03-19 17:33:00,39.1,13.1,30.11,West,280,12.0,17.0,34,0.00,,---,0.00,VWS V14.00,2013-03-19 22:33:00,
2013-03-19 17:38:00,39.1,16.2,30.11,West,279,11.0,15.0,39,0.00,,---,0.00,VWS V14.00,2013-03-19 22:38:00,
2013-03-19 17:43:00,39.1,15.6,30.11,West,267,6.0,19.0,38,0.00,,---,0.00,VWS V14.00,2013-03-19 22:43:00,
2013-03-19 17:48:00,38.9,13.6,30.12,West,276,9.0,15.0,35,0.00,,---,0.00,VWS V14.00,2013-03-19 22:48:00,
2013-03-19 17:54:00,38.6,14.0,30.12,WNW,290,11.0,19.0,36,0.00,,---,0.00,VWS V14.00,2013-03-19 22:54:00,
2013-03-19 17:59:00,38.5,13.2,30.12,West,277,15.0,16.0,35,0.00,,---,0.00,VWS V14.00,2013-03-19 22:59:00,
2013-03-19 18:04:00,38.3,13.1,30.12,West,277,10.0,17.0,35,0.00,,---,0.00,VWS V14.00,2013-03-19 23:04:00,
2013-03-19 18:09:00,38.3,14.9,30.12,West,273,6.0,15.0,38,0.00,,---,0.00,VWS V14.00,2013-03-19 23:09:00,
2013-03-19 18:14:00,38.2,14.8,30.12,West,281,6.0,10.0,38,0.00,,---,0.00,VWS V14.00,2013-03-19 23:14:00,
2013-03-19 18:19:00,38.2,17.1,30.12,West,275,7.0,12.0,42,0.00,,---,0.00,VWS V14.00,2013-03-19 23:19:00,
2013-03-19 18:24:00,37.9,15.8,30.12,West,270,15.0,18.0,40,0.00,,---,0.00,VWS V14.00,2013-03-19 23:24:00,
2013-03-19 18:29:00,37.3,15.8,30.12,West,280,8.0,10.0,41,0.00,,---,0.00,VWS V14.00,2013-03-19 23:29:00,
2013-03-19 18:34:00,37.0,15.5,30.13,West,279,9.0,19.0,41,0.00,,---,0.00,VWS V14.00,2013-03-19 23:34:00,
2013-03-19 18:39:00,36.9,15.4,30.13,West,275,11.0,12.0,41,0.00,,---,0.00,VWS V14.00,2013-03-19 23:39:00,
2013-03-19 18:44:00,36.8,17.0,30.13,West,273,5.0,5.0,44,0.00,,---,0.00,VWS V14.00,2013-03-19 23:44:00,
2013-03-19 18:49:00,36.3,17.5,30.13,West,273,9.0,13.0,46,0.00,,---,0.00,VWS V14.00,2013-03-19 23:49:00,
2013-03-19 18:54:00,35.9,18.6,30.13,West,269,10.0,10.0,49,0.00,,---,0.00,VWS V14.00,2013-03-19 23:54:00,
2013-03-19 18:59:00,35.6,18.8,30.13,West,267,10.0,10.0,50,0.00,,---,0.00,VWS V14.00,2013-03-19 23:59:00,
2013-03-19 19:04:00,35.6,18.8,30.13,West,267,10.0,10.0,50,0.00,,---,0.00,VWS V14.00,2013-03-20 00:04:00,
2013-03-19 19:09:00,34.9,19.1,30.13,West,261,5.0,11.0,52,0.00,,---,0.00,VWS V14.00,2013-03-20 00:09:00,
2013-03-19 19:14:00,34.6,18.8,30.13,West,271,10.0,12.0,52,0.00,,---,0.00,VWS V14.00,2013-03-20 00:14:00,
2013-03-19 19:19:00,34.6,18.8,30.13,West,272,7.0,11.0,52,0.00,,---,0.00,VWS V14.00,2013-03-20 00:19:00,
2013-03-19 19:24:00,34.3,19.4,30.13,West,266,2.0,7.0,54,0.00,,---,0.00,VWS V14.00,2013-03-20 00:24:00,
2013-03-19 19:29:00,34.3,19.4,30.13,West,266,3.0,3.0,54,0.00,,---,0.00,VWS V14.00,2013-03-20 00:29:00,
2013-03-19 19:35:00,34.3,19.4,30.13,West,266,3.0,3.0,54,0.00,,---,0.00,VWS V14.00,2013-03-20 00:35:00,
2013-03-19 19:40:00,34.3,19.4,30.13,West,266,3.0,3.0,54,0.00,,---,0.00,VWS V14.00,2013-03-20 00:40:00,
2013-03-19 19:45:00,34.3,19.4,30.13,West,266,3.0,3.0,54,0.00,,---,0.00,VWS V14.00,2013-03-20 00:45:00,
2013-03-19 19:50:00,34.3,19.4,30.14,West,266,3.0,3.0,54,0.00,,---,0.00,VWS V14.00,2013-03-20 00:50:00,
2013-03-19 19:55:00,33.1,18.7,30.14,West,269,2.0,9.0,55,0.00,,---,0.00,VWS V14.00,2013-03-20 00:55:00,
2013-03-19 20:00:00,33.1,17.8,30.14,West,271,6.0,10.0,53,0.00,,---,0.00,VWS V14.00,2013-03-20 01:00:00,
2013-03-19 20:05:00,33.2,17.0,30.14,West,271,5.0,5.0,51,0.00,,---,0.00,VWS V14.00,2013-03-20 01:05:00,
2013-03-19 20:10:00,33.4,17.2,30.14,West,273,3.0,6.0,51,0.00,,---,0.00,VWS V14.00,2013-03-20 01:10:00,
2013-03-19 20:15:00,33.2,17.0,30.14,West,275,4.0,6.0,51,0.00,,---,0.00,VWS V14.00,2013-03-20 01:15:00,
2013-03-19 20:20:00,33.2,17.5,30.14,West,279,9.0,9.0,52,0.00,,---,0.00,VWS V14.00,2013-03-20 01:20:00,
2013-03-19 20:25:00,33.1,17.0,30.14,West,279,4.0,7.0,51,0.00,,---,0.00,VWS V14.00,2013-03-20 01:25:00,
2013-03-19 20:30:00,32.8,17.6,30.14,West,279,5.0,5.0,53,0.00,,---,0.00,VWS V14.00,2013-03-20 01:30:00,
2013-03-19 20:35:00,32.5,16.9,30.14,West,279,5.0,5.0,52,0.00,,---,0.00,VWS V14.00,2013-03-20 01:35:00,
2013-03-19 20:40:00,32.4,16.8,30.14,West,279,3.0,9.0,52,0.00,,---,0.00,VWS V14.00,2013-03-20 01:40:00,
2013-03-19 20:45:00,32.4,16.8,30.14,West,279,3.0,9.0,52,0.00,,---,0.00,VWS V14.00,2013-03-20 01:45:00,
2013-03-19 20:51:00,32.4,16.8,30.14,West,281,4.0,6.0,52,0.00,,---,0.00,VWS V14.00,2013-03-20 01:51:00,
2013-03-19 20:56:00,32.1,16.9,30.14,West,281,5.0,5.0,53,0.00,,---,0.00,VWS V14.00,2013-03-20 01:56:00,
2013-03-19 21:01:00,32.1,16.9,30.14,West,281,6.0,6.0,53,0.00,,---,0.00,VWS V14.00,2013-03-20 02:01:00,
2013-03-19 21:06:00,32.1,16.9,30.14,West,281,6.0,6.0,53,0.00,,---,0.00,VWS V14.00,2013-03-20 02:06:00,
2013-03-19 21:12:00,32.1,16.9,30.14,West,281,6.0,6.0,53,0.00,,---,0.00,VWS V14.00,2013-03-20 02:12:00,
2013-03-19 21:17:00,32.1,16.9,30.14,West,281,6.0,6.0,53,0.00,,---,0.00,VWS V14.00,2013-03-20 02:17:00,
2013-03-19 21:22:00,32.1,16.9,30.14,West,281,6.0,6.0,53,0.00,,---,0.00,VWS V14.00,2013-03-20 02:22:00,
2013-03-19 21:27:00,32.1,16.9,30.14,West,281,6.0,6.0,53,0.00,,---,0.00,VWS V14.00,2013-03-20 02:27:00,
2013-03-19 21:32:00,32.1,16.9,30.14,West,281,6.0,6.0,53,0.00,,---,0.00,VWS V14.00,2013-03-20 02:32:00,
2013-03-19 21:37:00,32.1,16.9,30.14,West,281,6.0,6.0,53,0.00,,---,0.00,VWS V14.00,2013-03-20 02:37:00,
2013-03-19 21:42:00,32.1,16.9,30.14,West,281,6.0,6.0,53,0.00,,---,0.00,VWS V14.00,2013-03-20 02:42:00,
2013-03-19 21:47:00,32.1,16.9,30.14,West,281,6.0,6.0,53,0.00,,---,0.00,VWS V14.00,2013-03-20 02:47:00,
2013-03-19 21:52:00,32.1,16.9,30.14,West,281,6.0,6.0,53,0.00,,---,0.00,VWS V14.00,2013-03-20 02:52:00,
2013-03-19 21:57:00,30.3,15.2,30.14,West,281,1.0,6.0,53,0.00,,---,0.00,VWS V14.00,2013-03-20 02:57:00,
2013-03-19 22:02:00,30.0,16.6,30.14,West,281,1.0,2.0,57,0.00,,---,0.00,VWS V14.00,2013-03-20 03:02:00,
2013-03-19 22:08:00,29.7,17.9,30.14,West,281,0.0,0.0,61,0.00,,---,0.00,VWS V14.00,2013-03-20 03:08:00,
2013-03-19 22:13:00,29.1,18.8,30.14,West,281,2.0,2.0,65,0.00,,---,0.00,VWS V14.00,2013-03-20 03:13:00,
2013-03-19 22:18:00,28.7,19.8,30.13,West,281,3.0,3.0,69,0.00,,---,0.00,VWS V14.00,2013-03-20 03:18:00,
2013-03-19 22:23:00,28.4,19.9,30.13,West,281,0.0,0.0,70,0.00,,---,0.00,VWS V14.00,2013-03-20 03:23:00,
2013-03-19 22:28:00,28.1,19.6,30.13,West,281,0.0,1.0,70,0.00,,---,0.00,VWS V14.00,2013-03-20 03:28:00,
2013-03-19 22:33:00,27.8,19.6,30.13,West,281,1.0,1.0,71,0.00,,---,0.00,VWS V14.00,2013-03-20 03:33:00,
2013-03-19 22:38:00,27.5,19.7,30.13,West,281,2.0,2.0,72,0.00,,---,0.00,VWS V14.00,2013-03-20 03:38:00,
2013-03-19 22:43:00,27.5,19.7,30.13,West,281,2.0,4.0,72,0.00,,---,0.00,VWS V14.00,2013-03-20 03:43:00,
2013-03-19 22:48:00,27.6,19.4,30.13,West,281,0.0,2.0,71,0.00,,---,0.00,VWS V14.00,2013-03-20 03:48:00,
2013-03-19 22:53:00,27.6,19.4,30.13,West,281,2.0,2.0,71,0.00,,---,0.00,VWS V14.00,2013-03-20 03:53:00,
2013-03-19 22:58:00,27.6,19.4,30.13,West,281,1.0,1.0,71,0.00,,---,0.00,VWS V14.00,2013-03-20 03:58:00,
2013-03-19 23:00:00,27.6,19.4,30.13,West,281,1.0,1.0,71,0.00,,---,0.00,VWS V14.00,2013-03-20 04:00:00,
2013-03-19 23:05:00,27.6,19.4,30.12,West,281,1.0,1.0,71,0.00,,---,0.00,VWS V14.00,2013-03-20 04:05:00,
2013-03-19 23:11:00,27.6,19.4,30.12,West,281,1.0,1.0,71,0.00,,---,0.00,VWS V14.00,2013-03-20 04:11:00,
2013-03-19 23:15:00,27.6,19.4,30.06,West,281,1.0,1.0,71,0.00,,---,0.00,VWS V14.00,2013-03-20 04:15:00,
2013-03-19 23:21:00,27.6,19.4,30.06,West,281,1.0,1.0,71,0.00,,---,0.00,VWS V14.00,2013-03-20 04:21:00,
2013-03-19 23:26:00,27.9,17.0,30.06,West,281,0.0,1.0,63,0.00,,---,0.00,VWS V14.00,2013-03-20 04:26:00,
2013-03-19 23:31:00,27.9,17.0,30.12,West,281,1.0,1.0,63,0.00,,---,0.00,VWS V14.00,2013-03-20 04:31:00,
2013-03-19 23:36:00,27.8,17.6,30.12,West,281,1.0,2.0,65,0.00,,---,0.00,VWS V14.00,2013-03-20 04:36:00,
2013-03-19 23:41:00,27.8,18.3,30.12,West,281,3.0,4.0,67,0.00,,---,0.00,VWS V14.00,2013-03-20 04:41:00,
2013-03-19 23:46:00,27.6,18.1,30.12,West,281,1.0,1.0,67,0.00,,---,0.00,VWS V14.00,2013-03-20 04:46:00,
2013-03-19 23:51:00,27.5,18.3,30.12,West,281,2.0,2.0,68,0.00,,---,0.00,VWS V14.00,2013-03-20 04:51:00,
2013-03-19 23:57:00,27.3,18.5,30.12,West,281,2.0,2.0,69,0.00,,---,0.00,VWS V14.00,2013-03-20 04:57:00,